Portland, Oregon
Traffic Map
Current Weather Conditions
Portland, Oregon
Overcast
Overcast
13°
Feels Like: 13°
Wind Chill: 13° Ceiling: 5500
Heat Index: 13° Visibility: 10mi
Dew Point: Wind: 8mph
Humidity: 55% Direction: 220° (SW)
Pressure: 30.14in Gusts: 0mph
Raw Report DataKPDX 160353Z 22007KT 10SM BKN055 BKN080 OVC220 13/04 A3014 RMK AO2 SLP205 T01330044
Traffic Incident Summary
Active as of:
Severity:
Category:
InformationThere was an issue retrieving the traffic information for this location. Please try a different location or try again shortly.
Advertisements
At Last! Intellicast now available for iPhone and Android